Observation data for Seminole on 08/07/2020      Previous  Date  Next       Current Mesonet Observations  Soil Data  Daily Summary Page  Observations in Plain Language
KSM1 070500Z 14009KT 24/15 A30 RMK A01 T02440151  RH  059%=      5-min Rain = 0
KSM1 070505Z 15008KT 25/15 A3001 RMK A01 T02480147  RH  056%=      5-min Rain = 0
KSM1 070510Z 15009KT 25/15 A3001 RMK A01 T02510146  RH  054%=      5-min Rain = 0
KSM1 070515Z 16008KT 25/14 A3001 RMK A01 T02540144  RH  053%=      5-min Rain = 0
KSM1 070520Z 16009KT 26/14 A3001 RMK A01 T02550144  RH  052%=      5-min Rain = 0
KSM1 070525Z 16009KT 26/14 A3001 RMK A01 T02560141  RH  051%=      5-min Rain = 0
KSM1 070530Z 17009KT 26/14 A3001 RMK A01 T02580140  RH  050%=      5-min Rain = 0
KSM1 070535Z 17008KT 26/14 A3001 RMK A01 T02580140  RH  050%=      5-min Rain = 0
KSM1 070540Z 17009KT 26/14 A3001 RMK A01 T02590140  RH  050%=      5-min Rain = 0
KSM1 070545Z 17009KT 26/14 A3001 RMK A01 T02600140  RH  049%=      5-min Rain = 0
KSM1 070550Z 17009KT 26/14 A3001 RMK A01 T02610140  RH  049%=      5-min Rain = 0
KSM1 070555Z 18009KT 26/14 A3002 RMK A01 T02620140  RH  049%=      5-min Rain = 0
KSM1 070600Z 18009KT 26/14 A3002 RMK A01 T02610141  RH  049%=      5-min Rain = 0
KSM1 070605Z 17009KT 26/14 A3002 RMK A01 T02620141  RH  049%=      5-min Rain = 0
KSM1 070610Z 17010KT 26/14 A3002 RMK A01 T02630140  RH  049%=      5-min Rain = 0
KSM1 070615Z 17009KT 26/14 A3001 RMK A01 T02620141  RH  049%=      5-min Rain = 0
KSM1 070620Z 18009KT 26/14 A3001 RMK A01 T02620141  RH  049%=      5-min Rain = 0
KSM1 070625Z 18010KT 26/14 A3001 RMK A01 T02630140  RH  049%=      5-min Rain = 0
KSM1 070630Z 18010KT 27/14 A3001 RMK A01 T02660139  RH  048%=      5-min Rain = 0
KSM1 070635Z 18012KT 27/14 A3001 RMK A01 T02660138  RH  047%=      5-min Rain = 0
KSM1 070640Z 18012KT 27/14 A3001 RMK A01 T02680138  RH  047%=      5-min Rain = 0
KSM1 070645Z 18012KT 27/14 A3002 RMK A01 T02680138  RH  047%=      5-min Rain = 0
KSM1 070650Z 18011KT 27/14 A3002 RMK A01 T02670137  RH  047%=      5-min Rain = 0
KSM1 070655Z 19010KT 27/14 A3002 RMK A01 T02650138  RH  047%=      5-min Rain = 0
KSM1 070700Z 19008KT 26/14 A3002 RMK A01 T02640139  RH  048%=      5-min Rain = 0
KSM1 070705Z 21008KT 26/14 A3003 RMK A01 T02640138  RH  048%=      5-min Rain = 0
KSM1 070710Z 23005KT 26/14 A3003 RMK A01 T02630139  RH  049%=      5-min Rain = 0
KSM1 070715Z 24005KT 26/14 A3004 RMK A01 T02620140  RH  049%=      5-min Rain = 0
KSM1 070720Z 25004KT 26/14 A3004 RMK A01 T02580142  RH  051%=      5-min Rain = 0
KSM1 070725Z 23004KT 25/14 A3003 RMK A01 T02490144  RH  055%=      5-min Rain = 0
KSM1 070730Z 21005KT 24/15 A3003 RMK A01 T02410146  RH  058%=      5-min Rain = 0
KSM1 070735Z 19007KT 24/15 A3003 RMK A01 T02410147  RH  058%=      5-min Rain = 0
KSM1 070740Z 18008KT 24/15 A3003 RMK A01 T02420147  RH  058%=      5-min Rain = 0
KSM1 070745Z 18008KT 24/15 A3003 RMK A01 T02430147  RH  057%=      5-min Rain = 0
KSM1 070750Z 18008KT 25/15 A3002 RMK A01 T02450146  RH  056%=      5-min Rain = 0
KSM1 070755Z 19009KT 25/15 A3002 RMK A01 T02480145  RH  055%=      5-min Rain = 0
KSM1 070800Z 19009KT 25/14 A3003 RMK A01 T02510144  RH  054%=      5-min Rain = 0
KSM1 070805Z 19010KT 25/14 A3003 RMK A01 T02520144  RH  053%=      5-min Rain = 0
KSM1 070810Z 19010KT 25/14 A3003 RMK A01 T02530144  RH  053%=      5-min Rain = 0
KSM1 070815Z 18010KT 25/14 A3003 RMK A01 T02530144  RH  053%=      5-min Rain = 0
KSM1 070820Z 18010KT 25/14 A3003 RMK A01 T02540144  RH  053%=      5-min Rain = 0
KSM1 070825Z 19008KT 25/14 A3003 RMK A01 T02540144  RH  053%=      5-min Rain = 0
KSM1 070830Z 21009KT 26/14 A3003 RMK A01 T02560144  RH  052%=      5-min Rain = 0
KSM1 070835Z 20009G14KT 26/14 A3003 RMK A01 T02560144  RH  052%=      5-min Rain = 0
KSM1 070840Z 19009KT 26/15 A3002 RMK A01 T02550145  RH  053%=      5-min Rain = 0
KSM1 070845Z 18010KT 26/15 A3002 RMK A01 T02550145  RH  053%=      5-min Rain = 0
KSM1 070850Z 19009KT 25/15 A3002 RMK A01 T02540146  RH  053%=      5-min Rain = 0
KSM1 070855Z 19009KT 25/15 A3002 RMK A01 T02540146  RH  054%=      5-min Rain = 0
KSM1 070900Z 19009KT 25/15 A3002 RMK A01 T02530146  RH  054%=      5-min Rain = 0
KSM1 070905Z 18009KT 25/15 A3002 RMK A01 T02530146  RH  054%=      5-min Rain = 0
KSM1 070910Z 18009KT 25/15 A3002 RMK A01 T02540146  RH  054%=      5-min Rain = 0
KSM1 070915Z 17010KT 25/15 A3002 RMK A01 T02530147  RH  054%=      5-min Rain = 0
KSM1 070920Z 17010KT 25/15 A3002 RMK A01 T02530147  RH  054%=      5-min Rain = 0
KSM1 070925Z 17010G15KT 25/15 A3002 RMK A01 T02540147  RH  054%=      5-min Rain = 0
KSM1 070930Z 18009KT 25/15 A3002 RMK A01 T02540148  RH  054%=      5-min Rain = 0
KSM1 070935Z 18009KT 26/15 A3003 RMK A01 T02550148  RH  054%=      5-min Rain = 0
KSM1 070940Z 18008KT 26/15 A3003 RMK A01 T02550149  RH  054%=      5-min Rain = 0
KSM1 070945Z 18008KT 26/15 A3003 RMK A01 T02550149  RH  054%=      5-min Rain = 0
KSM1 070950Z 19008KT 26/15 A3003 RMK A01 T02550149  RH  054%=      5-min Rain = 0
KSM1 070955Z 19008G13KT 26/15 A3003 RMK A01 T02550149  RH  054%=      5-min Rain = 0
KSM1 071000Z 18009KT 26/15 A3003 RMK A01 T02560149  RH  054%=      5-min Rain = 0
KSM1 071005Z 18008KT 26/15 A3003 RMK A01 T02550150  RH  054%=      5-min Rain = 0
KSM1 071010Z 18008KT 25/15 A3003 RMK A01 T02540150  RH  055%=      5-min Rain = 0
KSM1 071015Z 18010KT 25/15 A3003 RMK A01 T02540150  RH  055%=      5-min Rain = 0
KSM1 071020Z 17009KT 25/15 A3003 RMK A01 T02540150  RH  055%=      5-min Rain = 0
KSM1 071025Z 18010KT 25/15 A3003 RMK A01 T02530150  RH  055%=      5-min Rain = 0
KSM1 071030Z 18011G16KT 25/15 A3003 RMK A01 T02540150  RH  055%=      5-min Rain = 0
KSM1 071035Z 17011G16KT 25/15 A3003 RMK A01 T02540150  RH  055%=      5-min Rain = 0
KSM1 071040Z 18011KT 25/15 A3003 RMK A01 T02540150  RH  055%=      5-min Rain = 0
KSM1 071045Z 18011KT 25/15 A3003 RMK A01 T02530149  RH  055%=      5-min Rain = 0
KSM1 071050Z 18010KT 25/15 A3003 RMK A01 T02510150  RH  056%=      5-min Rain = 0
KSM1 071055Z 18011KT 25/15 A3003 RMK A01 T02510149  RH  056%=      5-min Rain = 0
KSM1 071100Z 18010G15KT 25/15 A3003 RMK A01 T02500149  RH  056%=      5-min Rain = 0
KSM1 071105Z 18010KT 25/15 A3003 RMK A01 T02500149  RH  056%=      5-min Rain = 0
KSM1 071110Z 18010KT 25/15 A3003 RMK A01 T02500149  RH  056%=      5-min Rain = 0
KSM1 071115Z 18010KT 25/15 A3003 RMK A01 T02490148  RH  056%=      5-min Rain = 0
KSM1 071120Z 18011KT 25/15 A3004 RMK A01 T02490148  RH  056%=      5-min Rain = 0
KSM1 071125Z 18009KT 25/15 A3004 RMK A01 T02470148  RH  056%=      5-min Rain = 0
KSM1 071130Z 18010KT 25/15 A3004 RMK A01 T02470148  RH  057%=      5-min Rain = 0
KSM1 071135Z 17010KT 25/15 A3004 RMK A01 T02460148  RH  057%=      5-min Rain = 0
KSM1 071140Z 17011G17KT 25/15 A3004 RMK A01 T02460148  RH  057%=      5-min Rain = 0
KSM1 071145Z 17012KT 25/15 A3004 RMK A01 T02460148  RH  057%=      5-min Rain = 0
KSM1 071150Z 18011KT 25/15 A3004 RMK A01 T02460148  RH  057%=      5-min Rain = 0
KSM1 071155Z 18011KT 25/15 A3004 RMK A01 T02460148  RH  057%=      5-min Rain = 0
KSM1 071200Z 17012KT 25/15 A3004 RMK A01 T02450148  RH  057%=      5-min Rain = 0
KSM1 071205Z 17011KT 25/15 A3004 RMK A01 T02450148  RH  057%=      5-min Rain = 0
KSM1 071210Z 17012KT 24/15 A3004 RMK A01 T02440148  RH  058%=      5-min Rain = 0
KSM1 071215Z 18012KT 25/15 A3004 RMK A01 T02450148  RH  057%=      5-min Rain = 0
KSM1 071220Z 17011KT 24/15 A3004 RMK A01 T02440148  RH  058%=      5-min Rain = 0
KSM1 071225Z 17011KT 24/15 A3004 RMK A01 T02430148  RH  058%=      5-min Rain = 0
KSM1 071230Z 17011KT 24/15 A3004 RMK A01 T02420149  RH  058%=      5-min Rain = 0
KSM1 071235Z 17010KT 24/15 A3004 RMK A01 T02420149  RH  058%=      5-min Rain = 0
KSM1 071240Z 17011KT 24/15 A3004 RMK A01 T02440150  RH  058%=      5-min Rain = 0
KSM1 071245Z 16010KT 25/15 A3004 RMK A01 T02460151  RH  058%=      5-min Rain = 0
KSM1 071250Z 16011KT 25/15 A3005 RMK A01 T02470151  RH  058%=      5-min Rain = 0
KSM1 071255Z 17012KT 25/15 A3005 RMK A01 T02490150  RH  056%=      5-min Rain = 0
KSM1 071300Z 17013G19KT 25/15 A3005 RMK A01 T02490149  RH  056%=      5-min Rain = 0
KSM1 071305Z 17014G20KT 25/15 A3005 RMK A01 T02490149  RH  056%=      5-min Rain = 0
KSM1 071310Z 17013G19KT 25/15 A3005 RMK A01 T02500149  RH  056%=      5-min Rain = 0
KSM1 071315Z 17014KT 25/15 A3004 RMK A01 T02490150  RH  056%=      5-min Rain = 0
KSM1 071320Z 17014G22KT 25/15 A3004 RMK A01 T02500150  RH  056%=      5-min Rain = 0
KSM1 071325Z 17013KT 25/15 A3005 RMK A01 T02510151  RH  056%=      5-min Rain = 0
KSM1 071330Z 17013G18KT 25/15 A3005 RMK A01 T02500152  RH  057%=      5-min Rain = 0
KSM1 071335Z 17014G19KT 25/15 A3005 RMK A01 T02500152  RH  057%=      5-min Rain = 0
KSM1 071340Z 17013KT 25/15 A3005 RMK A01 T02490153  RH  058%=      5-min Rain = 0
KSM1 071345Z 17014KT 25/15 A3005 RMK A01 T02490154  RH  058%=      5-min Rain = 0
KSM1 071350Z 17012G17KT 25/15 A3005 RMK A01 T02490154  RH  058%=      5-min Rain = 0
KSM1 071355Z 17014G19KT 25/15 A3005 RMK A01 T02490154  RH  058%=      5-min Rain = 0
KSM1 071400Z 17015G20KT 25/16 A3005 RMK A01 T02500155  RH  058%=      5-min Rain = 0
KSM1 071405Z 17016G21KT 25/16 A3006 RMK A01 T02500155  RH  058%=      5-min Rain = 0
KSM1 071410Z 17013G19KT 25/16 A3006 RMK A01 T02510157  RH  058%=      5-min Rain = 0
KSM1 071415Z 17015KT 26/16 A3006 RMK A01 T02550157  RH  057%=      5-min Rain = 0
KSM1 071420Z 18012KT 26/16 A3006 RMK A01 T02570159  RH  057%=      5-min Rain = 0
KSM1 071425Z 17014KT 26/16 A3006 RMK A01 T02620160  RH  056%=      5-min Rain = 0
KSM1 071430Z 17016G21KT 27/16 A3006 RMK A01 T02660159  RH  054%=      5-min Rain = 0
KSM1 071435Z 17016KT 26/16 A3006 RMK A01 T02640158  RH  055%=      5-min Rain = 0
KSM1 071440Z 17015G20KT 27/16 A3006 RMK A01 T02670159  RH  054%=      5-min Rain = 0
KSM1 071445Z 17015G21KT 27/16 A3006 RMK A01 T02690159  RH  053%=      5-min Rain = 0
KSM1 071450Z 17013KT 27/16 A3006 RMK A01 T02700161  RH  054%=      5-min Rain = 0
KSM1 071455Z 17014G19KT 27/16 A3006 RMK A01 T02690160  RH  054%=      5-min Rain = 0
KSM1 071500Z 17016G21KT 27/16 A3006 RMK A01 T02730160  RH  053%=      5-min Rain = 0
KSM1 071505Z 18016KT 28/16 A3006 RMK A01 T02750160  RH  052%=      5-min Rain = 0
KSM1 071510Z 18016KT 28/16 A3006 RMK A01 T02750160  RH  052%=      5-min Rain = 0
KSM1 071515Z 18016KT 28/16 A3006 RMK A01 T02750161  RH  052%=      5-min Rain = 0
KSM1 071520Z 18014KT 28/16 A3006 RMK A01 T02760162  RH  052%=      5-min Rain = 0
KSM1 071525Z 17016KT 27/16 A3007 RMK A01 T02740162  RH  053%=      5-min Rain = 0
KSM1 071530Z 18014G19KT 27/16 A3007 RMK A01 T02740164  RH  054%=      5-min Rain = 0
KSM1 071535Z 19013KT 27/16 A3007 RMK A01 T02740164  RH  054%=      5-min Rain = 0
KSM1 071540Z 19013G18KT 28/17 A3007 RMK A01 T02750165  RH  054%=      5-min Rain = 0
KSM1 071545Z 19013G18KT 28/17 A3007 RMK A01 T02750167  RH  054%=      5-min Rain = 0
KSM1 071550Z 18014KT 28/17 A3007 RMK A01 T02770167  RH  054%=      5-min Rain = 0
KSM1 071555Z 18013KT 28/17 A3007 RMK A01 T02770167  RH  054%=      5-min Rain = 0
KSM1 071600Z 18013KT 28/17 A3007 RMK A01 T02780168  RH  054%=      5-min Rain = 0
KSM1 071605Z 18014KT 28/17 A3007 RMK A01 T02790167  RH  053%=      5-min Rain = 0
KSM1 071610Z 18013KT 28/17 A3007 RMK A01 T02790167  RH  053%=      5-min Rain = 0
KSM1 071615Z 19013G18KT 28/17 A3007 RMK A01 T02800168  RH  053%=      5-min Rain = 0
KSM1 071620Z 19011G16KT 28/17 A3007 RMK A01 T02820169  RH  053%=      5-min Rain = 0
KSM1 071625Z 19010KT 28/17 A3007 RMK A01 T02840168  RH  052%=      5-min Rain = 0
KSM1 071630Z 19013KT 28/17 A3007 RMK A01 T02840168  RH  052%=      5-min Rain = 0
KSM1 071635Z 19012G17KT 29/17 A3007 RMK A01 T02850168  RH  052%=      5-min Rain = 0
KSM1 071640Z 17012KT 28/17 A3007 RMK A01 T02840168  RH  052%=      5-min Rain = 0
KSM1 071645Z 18010KT 29/17 A3007 RMK A01 T02850169  RH  052%=      5-min Rain = 0
KSM1 071650Z 18008G15KT 29/17 A3007 RMK A01 T02860170  RH  052%=      5-min Rain = 0
KSM1 071655Z 19009G15KT 29/17 A3007 RMK A01 T02890166  RH  050%=      5-min Rain = 0
KSM1 071700Z 18010KT 29/17 A3007 RMK A01 T02910167  RH  049%=      5-min Rain = 0
KSM1 071705Z 17009KT 30/17 A3007 RMK A01 T02950167  RH  049%=      5-min Rain = 0
KSM1 071710Z 17009KT 30/17 A3007 RMK A01 T02970169  RH  048%=      5-min Rain = 0
KSM1 071715Z 17010KT 30/17 A3007 RMK A01 T03030167  RH  046%=      5-min Rain = 0
KSM1 071720Z 17011KT 31/16 A3007 RMK A01 T03060164  RH  044%=      5-min Rain = 0
KSM1 071725Z 17010KT 31/16 A3006 RMK A01 T03120164  RH  043%=      5-min Rain = 0
KSM1 071730Z 18010KT 32/16 A3006 RMK A01 T03160162  RH  042%=      5-min Rain = 0
KSM1 071735Z 17010KT 32/17 A3006 RMK A01 T03230166  RH  041%=      5-min Rain = 0
KSM1 071740Z 16011KT 32/16 A3006 RMK A01 T03230162  RH  040%=      5-min Rain = 0
KSM1 071745Z 18010KT 33/17 A3006 RMK A01 T03320166  RH  039%=      5-min Rain = 0
KSM1 071750Z 17010G15KT 34/16 A3006 RMK A01 T03360162  RH  037%=      5-min Rain = 0
KSM1 071755Z 17010KT 35/16 A3006 RMK A01 T03450163  RH  035%=      5-min Rain = 0
KSM1 071800Z 17010KT 35/16 A3005 RMK A01 T03460159  RH  034%=      5-min Rain = 0
KSM1 071805Z 17010G15KT 35/16 A3005 RMK A01 T03490158  RH  034%=      5-min Rain = 0
KSM1 071810Z 18009KT 34/16 A3005 RMK A01 T03420156  RH  034%=      5-min Rain = 0
KSM1 071815Z 17011G18KT 34/15 A3005 RMK A01 T03350154  RH  035%=      5-min Rain = 0
KSM1 071820Z 20013KT 33/15 A3005 RMK A01 T03320154  RH  036%=      5-min Rain = 0
KSM1 071825Z 19013G19KT 34/15 A3005 RMK A01 T03350153  RH  035%=      5-min Rain = 0
KSM1 071830Z 19011G16KT 33/15 A3005 RMK A01 T03330153  RH  035%=      5-min Rain = 0
KSM1 071835Z 18012G17KT 34/15 A3005 RMK A01 T03400149  RH  033%=      5-min Rain = 0
KSM1 071840Z 19012G20KT 34/15 A3005 RMK A01 T03420152  RH  034%=      5-min Rain = 0
KSM1 071845Z 20010KT 34/15 A3005 RMK A01 T03440153  RH  033%=      5-min Rain = 0
KSM1 071850Z 19009KT 35/15 A3005 RMK A01 T03470153  RH  033%=      5-min Rain = 0
KSM1 071855Z 17010KT 35/16 A3005 RMK A01 T03450156  RH  034%=      5-min Rain = 0
KSM1 071900Z 16011KT 35/16 A3005 RMK A01 T03460157  RH  034%=      5-min Rain = 0
KSM1 071905Z 17010KT 35/15 A3005 RMK A01 T03460154  RH  033%=      5-min Rain = 0
KSM1 071910Z 16008KT 34/15 A3004 RMK A01 T03410151  RH  033%=      5-min Rain = 0
KSM1 071915Z 15008KT 35/15 A3004 RMK A01 T03480153  RH  033%=      5-min Rain = 0
KSM1 071920Z 16010G15KT 36/15 A3004 RMK A01 T03560151  RH  031%=      5-min Rain = 0
KSM1 071925Z 17009G16KT 36/15 A3004 RMK A01 T03560148  RH  030%=      5-min Rain = 0
KSM1 071930Z 17011KT 36/15 A3004 RMK A01 T03590148  RH  030%=      5-min Rain = 0
KSM1 071935Z 15010KT 36/15 A3003 RMK A01 T03620148  RH  029%=      5-min Rain = 0
KSM1 071940Z 16010G16KT 36/15 A3003 RMK A01 T03600146  RH  029%=      5-min Rain = 0
KSM1 071945Z 19010G15KT 36/14 A3003 RMK A01 T03640143  RH  028%=      5-min Rain = 0
KSM1 071950Z 17010G17KT 37/15 A3003 RMK A01 T03660147  RH  028%=      5-min Rain = 0
KSM1 071955Z 17010G15KT 36/15 A3003 RMK A01 T03600146  RH  029%=      5-min Rain = 0
KSM1 072000Z 16011KT 36/15 A3003 RMK A01 T03610146  RH  029%=      5-min Rain = 0
KSM1 072005Z 17009G14KT 36/15 A3003 RMK A01 T03640145  RH  028%=      5-min Rain = 0
KSM1 072010Z 18011G17KT 37/15 A3003 RMK A01 T03690146  RH  028%=      5-min Rain = 0
KSM1 072015Z 16011G16KT 37/15 A3003 RMK A01 T03660146  RH  028%=      5-min Rain = 0
KSM1 072020Z 16008G13KT 36/14 A3002 RMK A01 T03640144  RH  028%=      5-min Rain = 0
KSM1 072025Z 16011G16KT 37/15 A3002 RMK A01 T03670147  RH  028%=      5-min Rain = 0
KSM1 072030Z 16010G16KT 36/15 A3002 RMK A01 T03630145  RH  029%=      5-min Rain = 0
KSM1 072035Z 19010G20KT 37/15 A3002 RMK A01 T03690145  RH  028%=      5-min Rain = 0
KSM1 072040Z 16010KT 37/15 A3002 RMK A01 T03700145  RH  027%=      5-min Rain = 0
KSM1 072045Z 16009KT 37/15 A3001 RMK A01 T03700145  RH  027%=      5-min Rain = 0
KSM1 072050Z 17011G16KT 36/14 A3001 RMK A01 T03640144  RH  028%=      5-min Rain = 0
KSM1 072055Z 16009G16KT 35/14 A3001 RMK A01 T03530140  RH  029%=      5-min Rain = 0
KSM1 072100Z 15009KT 35/14 A3001 RMK A01 T03510142  RH  030%=      5-min Rain = 0
KSM1 072105Z 16007KT 35/14 A3001 RMK A01 T03530143  RH  030%=      5-min Rain = 0
KSM1 072110Z 14007G12KT 36/14 A3001 RMK A01 T03570144  RH  029%=      5-min Rain = 0
KSM1 072115Z 14011G16KT 37/14 A30 RMK A01 T03660144  RH  028%=      5-min Rain = 0
KSM1 072120Z 17010KT 37/14 A30 RMK A01 T03700144  RH  027%=      5-min Rain = 0
KSM1 072125Z 18008KT 37/14 A30 RMK A01 T03650137  RH  027%=      5-min Rain = 0
KSM1 072130Z 15009KT 36/14 A30 RMK A01 T03600142  RH  028%=      5-min Rain = 0
KSM1 072135Z 15013G19KT 37/14 A2999 RMK A01 T03680141  RH  027%=      5-min Rain = 0
KSM1 072140Z 19010G19KT 37/13 A2999 RMK A01 T03680132  RH  025%=      5-min Rain = 0
KSM1 072145Z 18007G12KT 37/13 A2999 RMK A01 T03670133  RH  026%=      5-min Rain = 0
KSM1 072150Z 17011KT 37/14 A2999 RMK A01 T03670136  RH  026%=      5-min Rain = 0
KSM1 072155Z 18007KT 37/13 A2999 RMK A01 T03710132  RH  025%=      5-min Rain = 0
KSM1 072200Z 17009G14KT 36/13 A2999 RMK A01 T03640133  RH  026%=      5-min Rain = 0
KSM1 072205Z 15010KT 36/13 A2999 RMK A01 T03600130  RH  026%=      5-min Rain = 0
KSM1 072210Z 15009KT 36/13 A2999 RMK A01 T03620131  RH  026%=      5-min Rain = 0
KSM1 072215Z 16007KT 36/13 A2999 RMK A01 T03580131  RH  027%=      5-min Rain = 0
KSM1 072220Z 17012G17KT 36/13 A2999 RMK A01 T03560134  RH  027%=      5-min Rain = 0
KSM1 072225Z 17013KT 35/13 A2999 RMK A01 T03530132  RH  028%=      5-min Rain = 0
KSM1 072230Z 16010G15KT 35/13 A2999 RMK A01 T03530133  RH  028%=      5-min Rain = 0
KSM1 072235Z 17014KT 35/13 A2999 RMK A01 T03500134  RH  028%=      5-min Rain = 0
KSM1 072240Z 16015KT 34/13 A2999 RMK A01 T03440130  RH  029%=      5-min Rain = 0
KSM1 072245Z 16012KT 34/13 A2999 RMK A01 T03430127  RH  028%=      5-min Rain = 0
KSM1 072250Z 15010KT 34/12 A2999 RMK A01 T03440124  RH  028%=      5-min Rain = 0
KSM1 072255Z 14010KT 34/13 A2999 RMK A01 T03430126  RH  028%=      5-min Rain = 0
KSM1 072300Z 13008KT 34/13 A2999 RMK A01 T03420132  RH  029%=      5-min Rain = 0
KSM1 072305Z 13008KT 34/14 A2999 RMK A01 T03420137  RH  030%=      5-min Rain = 0
KSM1 072310Z 13009KT 34/14 A2999 RMK A01 T03420135  RH  030%=      5-min Rain = 0
KSM1 072315Z 13008KT 34/14 A2999 RMK A01 T03420135  RH  030%=      5-min Rain = 0
KSM1 072320Z 13008KT 34/14 A2999 RMK A01 T03420135  RH  030%=      5-min Rain = 0
KSM1 072325Z 13008KT 34/13 A2999 RMK A01 T03420134  RH  030%=      5-min Rain = 0
KSM1 072330Z 14007KT 34/14 A2999 RMK A01 T03400137  RH  031%=      5-min Rain = 0
KSM1 072335Z 14007KT 34/14 A2999 RMK A01 T03380140  RH  032%=      5-min Rain = 0
KSM1 072340Z 14008KT 34/14 A2999 RMK A01 T03380135  RH  031%=      5-min Rain = 0
KSM1 072345Z 15007KT 34/13 A30 RMK A01 T03390134  RH  030%=      5-min Rain = 0
KSM1 072350Z 16009KT 34/13 A30 RMK A01 T03400128  RH  029%=      5-min Rain = 0
KSM1 072355Z 17009G15KT 34/13 A30 RMK A01 T03410128  RH  029%=      5-min Rain = 0
KSM1 080000Z 21011G16KT 33/12 A30 RMK A01 T03340120  RH  028%=      5-min Rain = 0
KSM1 080005Z 20008KT 33/12 A30 RMK A01 T03320121  RH  029%=      5-min Rain = 0
KSM1 080010Z 19008KT 33/12 A30 RMK A01 T03320121  RH  029%=      5-min Rain = 0
KSM1 080015Z 18008KT 33/12 A30 RMK A01 T03320120  RH  029%=      5-min Rain = 0
KSM1 080020Z 18009KT 33/12 A30 RMK A01 T03340120  RH  028%=      5-min Rain = 0
KSM1 080025Z 17007KT 33/12 A30 RMK A01 T03340122  RH  029%=      5-min Rain = 0
KSM1 080030Z 17007KT 33/12 A30 RMK A01 T03330122  RH  029%=      5-min Rain = 0
KSM1 080035Z 17008KT 33/12 A30 RMK A01 T03340122  RH  029%=      5-min Rain = 0
KSM1 080040Z 17007KT 34/12 A3001 RMK A01 T03350120  RH  028%=      5-min Rain = 0
KSM1 080045Z 17007KT 33/12 A3001 RMK A01 T03340121  RH  029%=      5-min Rain = 0
KSM1 080050Z 17008KT 33/12 A3001 RMK A01 T03330121  RH  029%=      5-min Rain = 0
KSM1 080055Z 18008KT 33/12 A3001 RMK A01 T03320122  RH  029%=      5-min Rain = 0
KSM1 080100Z 18009KT 33/12 A3002 RMK A01 T03320121  RH  029%=      5-min Rain = 0
KSM1 080105Z 18009KT 33/12 A3002 RMK A01 T03340120  RH  028%=      5-min Rain = 0
KSM1 080110Z 18010KT 33/12 A3002 RMK A01 T03320121  RH  029%=      5-min Rain = 0
KSM1 080115Z 18009G14KT 33/12 A3002 RMK A01 T03310121  RH  029%=      5-min Rain = 0
KSM1 080120Z 21008G13KT 33/13 A3002 RMK A01 T03280127  RH  031%=      5-min Rain = 0
KSM1 080125Z 24007KT 32/15 A3003 RMK A01 T03150151  RH  039%=      5-min Rain = 0
KSM1 080130Z 23006KT 31/15 A3003 RMK A01 T03080154  RH  041%=      5-min Rain = 0
KSM1 080135Z 21005KT 31/15 A3003 RMK A01 T03050154  RH  042%=      5-min Rain = 0
KSM1 080140Z 20006KT 31/15 A3003 RMK A01 T03060149  RH  040%=      5-min Rain = 0
KSM1 080145Z 20005KT 31/15 A3003 RMK A01 T03050148  RH  040%=      5-min Rain = 0
KSM1 080150Z 19006KT 30/15 A3003 RMK A01 T03040147  RH  040%=      5-min Rain = 0
KSM1 080155Z 19006KT 30/15 A3003 RMK A01 T03040145  RH  040%=      5-min Rain = 0
KSM1 080200Z 19006KT 30/14 A3004 RMK A01 T03030144  RH  039%=      5-min Rain = 0
KSM1 080205Z 19006KT 31/14 A3004 RMK A01 T03050140  RH  038%=      5-min Rain = 0
KSM1 080210Z 18008KT 31/14 A3004 RMK A01 T03080136  RH  037%=      5-min Rain = 0
KSM1 080215Z 18008KT 31/13 A3004 RMK A01 T03090133  RH  036%=      5-min Rain = 0
KSM1 080220Z 18009KT 31/13 A3004 RMK A01 T03080132  RH  035%=      5-min Rain = 0
KSM1 080225Z 18009KT 31/13 A3004 RMK A01 T03080128  RH  034%=      5-min Rain = 0
KSM1 080230Z 18009KT 31/13 A3004 RMK A01 T03080125  RH  034%=      5-min Rain = 0
KSM1 080235Z 19009KT 31/12 A3005 RMK A01 T03080123  RH  033%=      5-min Rain = 0
KSM1 080240Z 21009KT 31/12 A3005 RMK A01 T03080123  RH  033%=      5-min Rain = 0
KSM1 080245Z 21009KT 31/13 A3005 RMK A01 T03070130  RH  035%=      5-min Rain = 0
KSM1 080250Z 20010G15KT 31/13 A3006 RMK A01 T03080128  RH  035%=      5-min Rain = 0
KSM1 080255Z 20010KT 31/13 A3006 RMK A01 T03100125  RH  033%=      5-min Rain = 0
KSM1 080300Z 22009KT 31/13 A3007 RMK A01 T03050132  RH  036%=      5-min Rain = 0
KSM1 080305Z 21009KT 30/14 A3007 RMK A01 T03000137  RH  038%=      5-min Rain = 0
KSM1 080310Z 21009KT 30/14 A3007 RMK A01 T03000136  RH  038%=      5-min Rain = 0
KSM1 080315Z 21009KT 30/14 A3007 RMK A01 T02980137  RH  039%=      5-min Rain = 0
KSM1 080320Z 21009KT 30/14 A3008 RMK A01 T02970136  RH  039%=      5-min Rain = 0
KSM1 080325Z 21008KT 30/14 A3008 RMK A01 T02980136  RH  039%=      5-min Rain = 0
KSM1 080330Z 23006KT 30/14 A3009 RMK A01 T02970137  RH  039%=      5-min Rain = 0
KSM1 080335Z 32008G13KT 29/14 A3011 RMK A01 T02940142  RH  041%=      5-min Rain = 0
KSM1 080340Z 34011G17KT 28/15 A3011 RMK A01 T02780150  RH  048%=      5-min Rain = 0
KSM1 080345Z 35015G21KT 28/15 A3012 RMK A01 T02770145  RH  046%=      5-min Rain = 0
KSM1 080350Z 01015KT 28/15 A3012 RMK A01 T02780145  RH  046%=      5-min Rain = 0
KSM1 080355Z 36014G22KT 28/15 A3013 RMK A01 T02750147  RH  047%=      5-min Rain = 0
KSM1 080400Z 36014G20KT 27/15 A3013 RMK A01 T02690148  RH  049%=      5-min Rain = 0
KSM1 080405Z 02012KT 27/15 A3013 RMK A01 T02650150  RH  052%=      5-min Rain = 0
KSM1 080410Z 03013G18KT 26/15 A3013 RMK A01 T02610154  RH  054%=      5-min Rain = 0
KSM1 080415Z 02012KT 25/16 A3013 RMK A01 T02540158  RH  058%=      5-min Rain = 0
KSM1 080420Z 02010KT 25/16 A3014 RMK A01 T02490158  RH  060%=      5-min Rain = 0
KSM1 080425Z 01011G16KT 25/16 A3014 RMK A01 T02470158  RH  060%=      5-min Rain = 0
KSM1 080430Z 01010KT 25/16 A3014 RMK A01 T02450160  RH  062%=      5-min Rain = 0
KSM1 080435Z 01008KT 24/16 A3014 RMK A01 T02440160  RH  062%=      5-min Rain = 0
KSM1 080440Z 01010KT 24/16 A3014 RMK A01 T02430161  RH  063%=      5-min Rain = 0
KSM1 080445Z 01008KT 24/16 A3015 RMK A01 T02430161  RH  063%=      5-min Rain = 0
KSM1 080450Z 00008KT 24/16 A3015 RMK A01 T02430161  RH  063%=      5-min Rain = 0
KSM1 080455Z 36007KT 25/16 A3015 RMK A01 T02450161  RH  062%=      5-min Rain = 0

Page generated in 0.0092 seconds.